createdAt,value
2023-09-23T00:00:58.619Z,15.23
2023-09-23T00:03:26.012Z,19.73
2023-09-23T00:05:53.950Z,15.43
2023-09-23T00:08:20.586Z,16.90
2023-09-23T00:10:47.292Z,14.63
2023-09-23T00:13:13.909Z,10.82
2023-09-23T00:15:44.689Z,14.35
2023-09-23T00:18:12.140Z,16.85
2023-09-23T00:20:39.315Z,10.85
2023-09-23T00:23:07.369Z,7.13
2023-09-23T00:25:37.920Z,8.07
2023-09-23T00:28:08.814Z,12.52
2023-09-23T00:30:37.190Z,10.43
2023-09-23T00:33:04.281Z,14.07
2023-09-23T00:35:30.917Z,11.25
2023-09-23T00:37:57.721Z,11.20
2023-09-23T00:40:33.710Z,12.68
2023-09-23T00:43:07.285Z,10.88
2023-09-23T00:45:35.404Z,12.57
2023-09-23T00:48:03.004Z,17.88
2023-09-23T00:50:30.744Z,26.42
2023-09-23T00:52:57.856Z,28.45
2023-09-23T00:55:27.279Z,36.88
2023-09-23T00:57:54.628Z,44.22
2023-09-23T01:00:26.106Z,50.33
2023-09-23T01:05:28.124Z,55.22
2023-09-23T01:07:58.111Z,49.50
2023-09-23T01:10:25.322Z,55.85
2023-09-23T01:12:52.464Z,53.70
2023-09-23T01:15:21.203Z,54.15
2023-09-23T01:17:50.186Z,49.63
2023-09-23T01:20:17.540Z,55.67
2023-09-23T01:22:45.708Z,47.70
2023-09-23T01:25:12.670Z,44.08
2023-09-23T01:27:40.247Z,43.42
2023-09-23T01:30:07.448Z,48.88
2023-09-23T01:32:54.609Z,43.50
2023-09-23T01:35:24.003Z,43.28
2023-09-23T01:37:51.376Z,42.45
2023-09-23T01:40:18.980Z,43.50
2023-09-23T01:42:52.602Z,36.90
2023-09-23T01:45:20.411Z,41.42
2023-09-23T01:47:47.704Z,44.42
2023-09-23T01:50:14.994Z,35.90
2023-09-23T01:52:44.694Z,36.28
2023-09-23T01:55:14.090Z,30.05
2023-09-23T01:57:40.730Z,33.38
2023-09-23T02:00:09.200Z,35.80
2023-09-23T02:02:40.086Z,38.28
2023-09-23T02:05:07.632Z,32.38
2023-09-23T02:07:34.486Z,34.58
2023-09-23T02:10:01.634Z,32.72
2023-09-23T02:12:28.495Z,38.97
2023-09-23T02:14:55.482Z,37.40
2023-09-23T02:17:22.838Z,26.85
2023-09-23T02:19:49.655Z,28.75
2023-09-23T02:22:19.284Z,29.00
2023-09-23T02:24:46.113Z,25.30
2023-09-23T02:27:13.037Z,26.10
2023-09-23T02:29:41.897Z,28.30
2023-09-23T02:32:08.569Z,25.40
2023-09-23T02:34:37.719Z,24.98
2023-09-23T02:37:05.625Z,26.20
2023-09-23T02:39:32.822Z,34.15
2023-09-23T02:42:00.975Z,25.27
2023-09-23T02:44:31.076Z,25.75
2023-09-23T02:46:58.102Z,24.10
2023-09-23T02:49:24.947Z,20.13
2023-09-23T02:51:51.944Z,22.50
2023-09-23T02:54:18.930Z,21.02
2023-09-23T02:56:49.019Z,19.33
2023-09-23T02:59:17.017Z,17.83
2023-09-23T03:01:49.909Z,21.20
2023-09-23T03:04:20.783Z,16.95
2023-09-23T03:06:50.978Z,14.27
2023-09-23T03:09:22.993Z,16.48
2023-09-23T03:11:54.537Z,19.08
2023-09-23T03:14:24.424Z,18.65
2023-09-23T03:16:54.562Z,13.77
2023-09-23T03:19:29.420Z,19.48
2023-09-23T03:21:57.373Z,19.45
2023-09-23T03:24:26.314Z,8.48
2023-09-23T03:27:00.703Z,20.25
2023-09-23T03:29:31.545Z,12.00
2023-09-23T03:34:27.443Z,10.10
2023-09-23T03:36:56.082Z,15.25
2023-09-23T03:39:23.853Z,14.60
2023-09-23T03:41:50.696Z,14.40
2023-09-23T03:44:17.819Z,16.17
2023-09-23T03:46:46.891Z,12.80
2023-09-23T03:49:13.900Z,12.05
2023-09-23T03:51:40.808Z,14.10
2023-09-23T03:54:08.036Z,14.27
2023-09-23T03:56:34.865Z,12.63
2023-09-23T03:59:06.453Z,11.93
2023-09-23T04:01:34.333Z,12.37
2023-09-23T04:04:03.301Z,9.35
2023-09-23T04:06:31.215Z,10.85
2023-09-23T04:09:00.255Z,14.23
2023-09-23T04:11:27.511Z,9.60
2023-09-23T04:13:54.728Z,9.73
2023-09-23T04:16:21.513Z,11.15
2023-09-23T04:18:48.599Z,6.43
2023-09-23T04:21:15.567Z,8.25
2023-09-23T04:23:42.118Z,15.30
2023-09-23T04:26:09.680Z,10.18
2023-09-23T04:28:36.479Z,12.32
2023-09-23T04:31:04.348Z,10.07
2023-09-23T04:33:31.361Z,10.10
2023-09-23T04:35:58.389Z,11.93
2023-09-23T04:38:26.163Z,13.57
2023-09-23T04:40:53.461Z,10.50
2023-09-23T04:43:22.945Z,17.08
2023-09-23T04:45:49.790Z,16.38
2023-09-23T04:48:19.549Z,11.95
2023-09-23T04:50:47.836Z,10.15
2023-09-23T04:53:14.887Z,13.15
2023-09-23T04:55:41.711Z,8.98
2023-09-23T04:58:09.857Z,14.40
2023-09-23T05:00:38.437Z,13.43
2023-09-23T05:03:06.929Z,11.60
2023-09-23T05:05:34.234Z,12.95
2023-09-23T05:08:00.991Z,11.38
2023-09-23T05:10:27.864Z,15.88
2023-09-23T05:12:57.371Z,11.93
2023-09-23T05:15:25.594Z,15.75
2023-09-23T05:17:55.869Z,11.48
2023-09-23T05:20:26.492Z,12.02
2023-09-23T05:22:53.847Z,21.58
2023-09-23T05:25:21.299Z,18.77
2023-09-23T05:27:48.137Z,17.20
2023-09-23T05:30:15.499Z,12.95
2023-09-23T05:32:45.232Z,14.27
2023-09-23T05:35:12.176Z,19.50
2023-09-23T05:37:40.838Z,10.75
2023-09-23T05:40:24.279Z,25.38
2023-09-23T05:42:51.692Z,20.23
2023-09-23T05:45:19.452Z,14.20
2023-09-23T05:47:46.777Z,14.30
2023-09-23T05:50:15.150Z,14.45
2023-09-23T05:52:41.948Z,13.60
2023-09-23T05:55:09.630Z,13.48
2023-09-23T05:57:36.309Z,21.58
2023-09-23T06:00:06.282Z,22.00
2023-09-23T06:02:33.423Z,20.80
2023-09-23T06:05:02.300Z,17.38
2023-09-23T06:07:29.739Z,14.10
2023-09-23T06:10:01.118Z,16.35
2023-09-23T06:12:31.923Z,15.02
2023-09-23T06:14:59.706Z,15.40
2023-09-23T06:17:28.898Z,11.20
2023-09-23T06:19:59.110Z,28.88
2023-09-23T06:22:26.739Z,14.90
2023-09-23T06:24:53.917Z,20.92
2023-09-23T06:27:20.970Z,19.58
2023-09-23T06:29:47.788Z,13.25
2023-09-23T06:32:14.514Z,17.10
2023-09-23T06:34:41.394Z,14.85
2023-09-23T06:37:08.022Z,10.60
2023-09-23T06:39:34.815Z,20.35
2023-09-23T06:42:01.702Z,13.65
2023-09-23T06:44:28.358Z,11.63
2023-09-23T06:46:55.059Z,12.18
2023-09-23T06:49:21.837Z,15.68
2023-09-23T06:51:48.912Z,12.93
2023-09-23T06:54:15.423Z,11.45
2023-09-23T06:56:42.004Z,9.00
2023-09-23T06:59:09.124Z,15.65
2023-09-23T07:01:36.306Z,10.25
2023-09-23T07:04:03.711Z,8.55
2023-09-23T07:06:30.748Z,12.85
2023-09-23T07:08:57.269Z,12.18
2023-09-23T07:11:24.939Z,10.50
2023-09-23T07:13:51.870Z,12.40
2023-09-23T07:16:18.666Z,11.35
2023-09-23T07:18:45.802Z,13.73
2023-09-23T07:21:13.129Z,5.32
2023-09-23T07:23:39.959Z,6.88
2023-09-23T07:26:06.870Z,9.82
2023-09-23T07:28:33.769Z,10.15
2023-09-23T07:31:00.793Z,7.25
2023-09-23T07:33:27.480Z,9.23
2023-09-23T07:35:54.793Z,7.93
2023-09-23T07:38:21.409Z,8.20
2023-09-23T07:40:50.085Z,6.20
2023-09-23T07:43:16.692Z,11.90
2023-09-23T07:45:43.356Z,3.85
2023-09-23T07:48:10.272Z,5.65
2023-09-23T07:50:37.182Z,7.88
2023-09-23T07:53:04.570Z,10.02
2023-09-23T07:55:31.540Z,6.13
2023-09-23T07:57:58.193Z,3.40
2023-09-23T08:00:27.219Z,3.47
2023-09-23T08:02:55.454Z,7.38
2023-09-23T08:05:25.747Z,8.38
2023-09-23T08:07:52.848Z,6.18
2023-09-23T08:10:19.624Z,4.72
2023-09-23T08:12:46.240Z,6.18
2023-09-23T08:15:13.137Z,8.85
2023-09-23T08:17:40.638Z,7.32
2023-09-23T08:20:30.803Z,6.78
2023-09-23T08:22:59.394Z,7.03
2023-09-23T08:25:26.350Z,8.27
2023-09-23T08:27:55.179Z,5.80
2023-09-23T08:30:22.985Z,4.15
2023-09-23T08:32:49.883Z,7.90
2023-09-23T08:35:17.096Z,7.72
2023-09-23T08:37:46.941Z,4.60
2023-09-23T08:40:14.462Z,5.93
2023-09-23T08:42:41.120Z,7.35
2023-09-23T08:45:11.565Z,5.90
2023-09-23T08:47:39.036Z,5.93
2023-09-23T08:50:09.787Z,7.72
2023-09-23T08:52:37.063Z,5.68
2023-09-23T08:55:05.205Z,5.70
2023-09-23T08:57:32.433Z,7.20
2023-09-23T08:59:59.118Z,10.60
2023-09-23T09:02:26.882Z,7.25
2023-09-23T09:04:56.259Z,6.05
2023-09-23T09:07:40.873Z,6.47
2023-09-23T09:10:07.649Z,5.88
2023-09-23T09:12:34.786Z,5.88
2023-09-23T09:15:01.867Z,5.65
2023-09-23T09:17:28.741Z,5.57
2023-09-23T09:19:55.463Z,3.75
2023-09-23T09:22:22.203Z,5.50
2023-09-23T09:24:48.979Z,7.97
2023-09-23T09:27:16.177Z,7.07
2023-09-23T09:29:43.464Z,6.80
2023-09-23T09:32:14.409Z,20.52
2023-09-23T09:34:48.672Z,8.48
2023-09-23T09:37:15.920Z,7.78
2023-09-23T09:39:59.572Z,4.70
2023-09-23T09:42:34.439Z,2.92
2023-09-23T09:45:01.304Z,4.65
2023-09-23T09:47:29.028Z,7.93
2023-09-23T09:49:56.148Z,3.85
2023-09-23T09:52:23.846Z,6.78
2023-09-23T09:54:53.831Z,3.78
2023-09-23T09:57:23.462Z,9.80
2023-09-23T09:59:52.802Z,3.72
2023-09-23T10:02:19.835Z,8.55
2023-09-23T10:04:50.793Z,5.40
2023-09-23T10:07:20.935Z,6.13
2023-09-23T10:09:55.004Z,5.88
2023-09-23T10:12:32.381Z,6.93
2023-09-23T10:15:02.883Z,10.60
2023-09-23T10:17:31.857Z,8.05
2023-09-23T10:19:59.281Z,3.97
2023-09-23T10:22:29.255Z,7.57
2023-09-23T10:25:05.334Z,5.70
2023-09-23T10:27:32.635Z,7.78
2023-09-23T10:30:01.269Z,4.22
2023-09-23T10:32:28.115Z,4.85
2023-09-23T10:34:56.988Z,3.67
2023-09-23T10:37:34.308Z,4.75
2023-09-23T10:40:14.107Z,6.95
2023-09-23T10:42:42.220Z,5.13
2023-09-23T10:45:10.979Z,3.85
2023-09-23T10:47:38.232Z,3.20
2023-09-23T10:50:09.378Z,3.40
2023-09-23T10:52:35.962Z,5.43
2023-09-23T10:55:02.995Z,5.45
2023-09-23T10:57:29.829Z,3.83
2023-09-23T10:59:56.955Z,5.40
2023-09-23T11:02:26.747Z,3.70
2023-09-23T11:04:56.392Z,4.32
2023-09-23T11:07:25.373Z,4.15
2023-09-23T11:09:54.389Z,4.25
2023-09-23T11:12:20.948Z,5.90
2023-09-23T11:14:49.459Z,2.65
2023-09-23T11:17:24.514Z,4.28
2023-09-23T11:19:59.107Z,1.73
2023-09-23T11:22:30.030Z,5.53
2023-09-23T11:24:57.411Z,5.78
2023-09-23T11:27:25.423Z,3.38
2023-09-23T11:29:53.076Z,5.32
2023-09-23T11:32:27.155Z,3.95
2023-09-23T11:34:55.060Z,5.03
2023-09-23T11:37:23.925Z,4.68
2023-09-23T11:39:50.988Z,3.75
2023-09-23T11:42:17.595Z,3.88
2023-09-23T11:44:44.600Z,5.25
2023-09-23T11:47:11.466Z,3.92
2023-09-23T11:49:38.202Z,5.75
2023-09-23T11:52:12.916Z,4.47
2023-09-23T11:54:43.336Z,2.38
2023-09-23T11:57:10.173Z,4.85
2023-09-23T11:59:37.338Z,8.35
2023-09-23T12:02:04.421Z,8.07
2023-09-23T12:04:32.532Z,4.47
2023-09-23T12:06:59.342Z,5.10
2023-09-23T12:09:26.287Z,6.10
2023-09-23T12:11:53.119Z,6.22
2023-09-23T12:14:20.739Z,5.85
2023-09-23T12:16:47.755Z,6.15
2023-09-23T12:19:14.257Z,2.85
2023-09-23T12:21:41.316Z,4.38
2023-09-23T12:24:08.006Z,2.50
2023-09-23T12:26:36.799Z,6.32
2023-09-23T12:29:04.244Z,2.92
2023-09-23T12:31:30.913Z,4.57
2023-09-23T12:33:57.877Z,3.60
2023-09-23T12:36:25.238Z,4.20
2023-09-23T12:38:51.988Z,5.07
2023-09-23T12:41:18.672Z,6.65
2023-09-23T12:43:45.245Z,7.65
2023-09-23T12:46:12.074Z,4.00
2023-09-23T12:48:38.639Z,4.43
2023-09-23T12:51:05.413Z,5.22
2023-09-23T12:53:32.083Z,4.40
2023-09-23T12:55:58.912Z,8.27
2023-09-23T12:58:25.554Z,3.85
2023-09-23T13:00:52.217Z,5.85
2023-09-23T13:03:19.010Z,4.38
2023-09-23T13:05:45.816Z,5.28
2023-09-23T13:08:13.191Z,6.20
2023-09-23T13:10:40.217Z,2.85
2023-09-23T13:13:06.991Z,4.25
2023-09-23T13:15:33.764Z,4.43
2023-09-23T13:18:02.199Z,5.57
2023-09-23T13:20:28.901Z,3.53
2023-09-23T13:22:55.539Z,3.97
2023-09-23T13:25:22.078Z,3.80
2023-09-23T13:27:48.765Z,2.47
2023-09-23T13:30:15.438Z,3.95
2023-09-23T13:32:43.159Z,4.40
2023-09-23T13:35:10.678Z,3.40
2023-09-23T13:37:38.108Z,5.82
2023-09-23T13:40:05.889Z,6.10
2023-09-23T13:42:32.726Z,6.45
2023-09-23T13:44:59.335Z,3.70
2023-09-23T13:47:27.012Z,6.03
2023-09-23T13:49:53.804Z,6.35
2023-09-23T13:52:20.544Z,2.45
2023-09-23T13:54:47.153Z,2.92
2023-09-23T13:57:13.755Z,4.20
2023-09-23T13:59:40.520Z,5.68
2023-09-23T14:02:13.800Z,6.13
2023-09-23T14:04:40.377Z,4.25
2023-09-23T14:07:06.917Z,5.78
2023-09-23T14:09:34.899Z,5.88
2023-09-23T14:12:01.818Z,5.20
2023-09-23T14:14:28.490Z,4.38
2023-09-23T14:16:56.775Z,4.68
2023-09-23T14:19:23.396Z,2.97
2023-09-23T14:21:50.054Z,3.63
2023-09-23T14:24:16.737Z,3.70
2023-09-23T14:26:44.518Z,4.15
2023-09-23T14:29:11.248Z,3.17
2023-09-23T14:31:38.081Z,6.50
2023-09-23T14:34:05.233Z,4.05
2023-09-23T14:36:35.047Z,5.47
2023-09-23T14:39:04.761Z,7.95
2023-09-23T14:41:34.970Z,5.30
2023-09-23T14:44:05.111Z,5.03
2023-09-23T14:46:31.943Z,2.20
2023-09-23T14:48:58.593Z,4.53
2023-09-23T14:51:25.543Z,5.55
2023-09-23T14:53:52.161Z,7.75
2023-09-23T14:56:18.984Z,4.85
2023-09-23T14:58:45.796Z,2.35
2023-09-23T15:01:13.881Z,4.60
2023-09-23T15:03:41.188Z,4.80
2023-09-23T15:06:08.289Z,3.70
2023-09-23T15:08:49.903Z,5.28
2023-09-23T15:11:20.587Z,4.40
2023-09-23T15:13:47.204Z,9.32
2023-09-23T15:16:14.016Z,5.15
2023-09-23T15:18:40.877Z,2.35
2023-09-23T15:21:08.110Z,6.25
2023-09-23T15:23:34.835Z,5.20
2023-09-23T15:26:01.546Z,6.68
2023-09-23T15:28:28.167Z,4.35
2023-09-23T15:30:55.474Z,5.40
2023-09-23T15:33:23.225Z,6.43
2023-09-23T15:35:49.997Z,11.80
2023-09-23T15:38:16.629Z,3.63
2023-09-23T15:40:44.161Z,9.95
2023-09-23T15:43:11.257Z,6.03
2023-09-23T15:45:38.566Z,3.22
2023-09-23T15:48:05.811Z,3.15
2023-09-23T15:50:32.507Z,3.92
2023-09-23T15:52:59.304Z,2.47
2023-09-23T15:55:26.151Z,3.28
2023-09-23T15:57:53.539Z,1.58
2023-09-23T16:00:20.871Z,6.40
2023-09-23T16:02:47.823Z,4.40
2023-09-23T16:05:14.817Z,3.28
2023-09-23T16:07:41.590Z,1.83
2023-09-23T16:10:09.172Z,6.55
2023-09-23T16:12:35.955Z,2.80
2023-09-23T16:15:02.633Z,4.68
2023-09-23T16:17:29.276Z,3.47
2023-09-23T16:19:55.914Z,4.75
2023-09-23T16:22:22.570Z,6.38
2023-09-23T16:24:49.171Z,4.60
2023-09-23T16:27:16.149Z,2.85
2023-09-23T16:29:42.819Z,10.60
2023-09-23T16:32:09.645Z,4.13
2023-09-23T16:34:36.240Z,6.30
2023-09-23T16:37:05.164Z,4.95
2023-09-23T16:39:32.078Z,4.20
2023-09-23T16:41:58.613Z,4.10
2023-09-23T16:44:25.182Z,2.05
2023-09-23T16:46:51.818Z,7.88
2023-09-23T16:49:19.492Z,7.15
2023-09-23T16:51:46.271Z,8.32
2023-09-23T16:54:14.037Z,2.50
2023-09-23T16:56:40.627Z,4.00
2023-09-23T16:59:07.481Z,3.45
2023-09-23T17:01:34.152Z,5.60
2023-09-23T17:04:00.936Z,5.95
2023-09-23T17:06:28.565Z,3.67
2023-09-23T17:08:55.114Z,5.10
2023-09-23T17:11:21.716Z,7.00
2023-09-23T17:13:48.804Z,8.02
2023-09-23T17:16:15.379Z,7.70
2023-09-23T17:18:41.921Z,4.60
2023-09-23T17:21:09.763Z,3.97
2023-09-23T17:23:36.392Z,15.00
2023-09-23T17:26:06.287Z,4.15
2023-09-23T17:28:33.678Z,5.18
2023-09-23T17:31:00.489Z,6.32
2023-09-23T17:33:27.201Z,7.82
2023-09-23T17:35:58.048Z,6.20
2023-09-23T17:38:25.649Z,3.47
2023-09-23T17:40:52.553Z,4.38
2023-09-23T17:43:20.327Z,4.13
2023-09-23T17:45:47.201Z,4.82
2023-09-23T17:48:13.874Z,7.60
2023-09-23T17:50:41.360Z,4.88
2023-09-23T17:53:07.944Z,7.72
2023-09-23T17:55:34.662Z,4.70
2023-09-23T17:58:01.437Z,6.82
2023-09-23T18:00:29.953Z,7.75
2023-09-23T18:02:57.411Z,4.10
2023-09-23T18:05:24.115Z,7.00
2023-09-23T18:07:50.946Z,6.05
2023-09-23T18:10:18.475Z,5.63
2023-09-23T18:12:45.108Z,6.00
2023-09-23T18:15:13.963Z,8.23
2023-09-23T18:17:40.939Z,9.73
2023-09-23T18:20:09.088Z,5.57
2023-09-23T18:22:35.807Z,7.00
2023-09-23T18:25:02.552Z,7.50
2023-09-23T18:27:30.800Z,4.68
2023-09-23T18:29:57.361Z,9.50
2023-09-23T18:32:24.391Z,6.43
2023-09-23T18:34:51.218Z,6.75
2023-09-23T18:37:18.023Z,8.07
2023-09-23T18:39:44.713Z,6.22
2023-09-23T18:42:11.327Z,5.43
2023-09-23T18:44:37.972Z,6.22
2023-09-23T18:47:05.269Z,5.47
2023-09-23T18:49:31.844Z,4.65
2023-09-23T18:52:00.223Z,5.78
2023-09-23T18:54:27.418Z,7.88
2023-09-23T18:56:54.503Z,10.18
2023-09-23T18:59:21.002Z,9.48
2023-09-23T19:01:50.111Z,7.85
2023-09-23T19:04:17.380Z,12.43
2023-09-23T19:06:44.091Z,7.93
2023-09-23T19:09:12.157Z,7.45
2023-09-23T19:11:38.788Z,6.43
2023-09-23T19:14:05.524Z,7.40
2023-09-23T19:16:32.383Z,7.57
2023-09-23T19:18:59.182Z,8.13
2023-09-23T19:21:25.750Z,7.30
2023-09-23T19:23:52.510Z,8.45
2023-09-23T19:26:19.180Z,10.23
2023-09-23T19:28:45.779Z,7.28
2023-09-23T19:31:15.311Z,8.00
2023-09-23T19:33:45.462Z,6.25
2023-09-23T19:36:12.176Z,8.82
2023-09-23T19:38:38.749Z,6.50
2023-09-23T19:41:06.738Z,7.28
2023-09-23T19:43:36.407Z,6.20
2023-09-23T19:46:04.602Z,9.48
2023-09-23T19:48:34.308Z,12.52
2023-09-23T19:51:01.830Z,7.18
2023-09-23T19:53:28.406Z,10.88
2023-09-23T19:55:55.009Z,12.30
2023-09-23T19:58:21.890Z,8.23
2023-09-23T20:00:52.719Z,12.57
2023-09-23T20:03:19.884Z,12.80
2023-09-23T20:05:49.961Z,8.48
2023-09-23T20:08:17.890Z,6.88
2023-09-23T20:10:46.413Z,6.93
2023-09-23T20:13:13.207Z,6.07
2023-09-23T20:15:41.678Z,7.90
2023-09-23T20:18:08.984Z,8.25
2023-09-23T20:20:35.915Z,7.60
2023-09-23T20:23:06.017Z,7.15
2023-09-23T20:25:32.810Z,8.93
2023-09-23T20:27:59.804Z,9.27
2023-09-23T20:30:26.467Z,9.68
2023-09-23T20:32:53.538Z,8.27
2023-09-23T20:35:21.379Z,7.20
2023-09-23T20:37:48.022Z,8.73
2023-09-23T20:40:17.227Z,12.32
2023-09-23T20:42:44.863Z,11.38
2023-09-23T20:45:13.890Z,10.10
2023-09-23T20:47:41.106Z,14.05
2023-09-23T20:50:11.304Z,9.32
2023-09-23T20:52:38.644Z,8.20
2023-09-23T20:55:09.059Z,13.30
2023-09-23T20:57:35.773Z,8.75
2023-09-23T21:00:08.741Z,13.02
2023-09-23T21:02:35.366Z,8.30
2023-09-23T21:05:04.997Z,9.07
2023-09-23T21:07:31.964Z,15.93
2023-09-23T21:09:59.451Z,12.75
2023-09-23T21:12:26.256Z,15.63
2023-09-23T21:14:53.376Z,9.43
2023-09-23T21:17:20.024Z,10.73
2023-09-23T21:19:46.921Z,10.32
2023-09-23T21:22:13.530Z,10.77
2023-09-23T21:24:40.711Z,8.32
2023-09-23T21:27:08.775Z,9.52
2023-09-23T21:29:35.360Z,8.27
2023-09-23T21:32:02.237Z,11.02
2023-09-23T21:34:29.155Z,6.95
2023-09-23T21:36:55.773Z,10.13
2023-09-23T21:39:22.417Z,8.80
2023-09-23T21:41:49.141Z,11.25
2023-09-23T21:44:15.745Z,7.90
2023-09-23T21:46:42.279Z,6.75
2023-09-23T21:49:11.922Z,13.32
2023-09-23T21:51:38.507Z,11.10
2023-09-23T21:54:05.649Z,9.98
2023-09-23T21:56:43.155Z,9.07
2023-09-23T21:59:11.958Z,11.90
2023-09-23T22:01:38.651Z,10.93
2023-09-23T22:04:08.288Z,9.85
2023-09-23T22:06:36.737Z,6.53
2023-09-23T22:09:04.212Z,8.35
2023-09-23T22:11:32.201Z,6.82
2023-09-23T22:13:59.762Z,9.27
2023-09-23T22:16:26.347Z,10.20
2023-09-23T22:18:53.370Z,11.40
2023-09-23T22:21:20.138Z,7.85
2023-09-23T22:23:49.062Z,9.07
2023-09-23T22:26:16.133Z,9.95
2023-09-23T22:28:43.684Z,9.63
2023-09-23T22:31:10.983Z,11.52
2023-09-23T22:33:38.296Z,9.20
2023-09-23T22:36:05.700Z,9.27
2023-09-23T22:38:36.151Z,7.95
2023-09-23T22:41:03.424Z,11.87
2023-09-23T22:43:30.458Z,6.82
2023-09-23T22:45:57.701Z,8.80
2023-09-23T22:48:24.715Z,9.77
2023-09-23T22:50:51.699Z,7.95
2023-09-23T22:53:19.012Z,7.13
2023-09-23T22:55:46.352Z,10.82
2023-09-23T22:58:12.962Z,10.95
2023-09-23T23:00:40.422Z,7.90
2023-09-23T23:03:08.178Z,9.68
2023-09-23T23:05:37.040Z,10.93
2023-09-23T23:08:05.966Z,10.52
2023-09-23T23:10:33.692Z,12.00
2023-09-23T23:13:00.252Z,9.27
2023-09-23T23:15:27.029Z,10.73
2023-09-23T23:17:55.498Z,12.35
2023-09-23T23:20:25.778Z,15.02
2023-09-23T23:22:56.284Z,11.50
2023-09-23T23:25:24.632Z,11.65
2023-09-23T23:27:51.609Z,10.25
2023-09-23T23:30:18.988Z,14.02
2023-09-23T23:32:47.916Z,16.77
2023-09-23T23:35:22.898Z,15.15
2023-09-23T23:37:50.045Z,16.58
2023-09-23T23:40:21.212Z,12.77
2023-09-23T23:45:14.413Z,13.27
2023-09-23T23:47:41.318Z,10.60
2023-09-23T23:50:08.511Z,12.55
2023-09-23T23:52:35.304Z,10.77
2023-09-23T23:55:03.589Z,14.77
2023-09-23T23:57:30.397Z,10.15
2023-09-23T23:59:57.087Z,11.68
